Flight Track Log - Related Links

Times and Time Zones

All times are in EDT time to prevent confusion due to time zone crossing. See the DAL1001 flight status page for this flight to view local times or setup timezone preferences in your user account.

Time Position Orientation Groundspeed Altitude Reporting Facility
EDT Latitude Longitude Course Direction KTS MPH feet Rate Location/Type
Sat 11:14:07 AM 42.3500 -71.0167 277° West 152 175 1,100  Level KA90
Sat 11:15:59 AM 42.3169 -70.8931 110° East 269 310 4,100 2,058 Climbing Boston Center
Sat 11:16:00 AM 42.3321 -70.7274 166° South  Level FlightAware Approximate
Sat 11:16:59 AM 42.3300 -70.7886 80° East 283 326 7,000  Level Boston Center
Sat 11:17:00 AM 42.2452 -70.7988 228° Southwest  Level FlightAware Approximate
Sat 11:18:00 AM 42.1847 -70.9302 240° Southwest  Level FlightAware Approximate
Sat 11:18:00 AM 42.2789 -70.7172 134° Southeast 234 269 9,400  Level Boston Center
Sat 11:19:00 AM 42.1940 -71.0838 277° West  Level FlightAware Approximate
Sat 11:19:00 AM 42.2003 -70.7472 196° South 212 244 11,100  Level Boston Center
Sat 11:20:01 AM 42.1728 -70.8658 253° West 212 244 12,500 1,729 Climbing Boston Center
Sat 11:20:58 AM 42.1703 -70.9919 269° West 331 381 14,500 2,186 Climbing Boston Center
Sat 11:21:59 AM 42.1700 -71.1544 270° West 393 452 16,800 2,132 Climbing Boston Center
Sat 11:22:59 AM 42.1550 -71.2892 262° West 408 470 18,800 1,884 Climbing Boston Center
Sat 11:24:00 AM 42.1272 -71.4547 257° West 414 476 20,600 1,636 Climbing Boston Center
Sat 11:25:00 AM 42.0972 -71.5894 253° West 409 471 22,100 1,450 Climbing Boston Center
Sat 11:26:00 AM 42.0628 -71.7439 253° West 426 490 23,500 1,373 Climbing Boston Center
Sat 11:26:58 AM 42.0239 -71.9008 252° West 432 497 24,800 1,424 Climbing Boston Center
Sat 11:27:58 AM 41.9831 -72.0547 250° West 437 503 26,300 1,587 Climbing Boston Center
Sat 11:28:59 AM 41.9436 -72.2111 251° West 443 510 28,000 1,587 Climbing Boston Center
Sat 11:29:59 AM 41.9064 -72.3647 252° West 443 510 29,500 1,250 Climbing Boston Center
Sat 11:30:59 AM 41.8689 -72.5208 252° West 443 510 30,500 992 Climbing Boston Center
Sat 11:32:00 AM 41.8269 -72.6797 251° West 436 502 31,500 744 Climbing Boston Center
Sat 11:33:00 AM 41.7850 -72.8383 251° West 436 502 32,000 248 Climbing Boston Center
Sat 11:34:01 AM 41.7322 -72.9825 244° Southwest 443 510 32,000  Level Boston Center
Sat 11:34:58 AM 41.6586 -73.1153 233° Southwest 443 510 32,000  Level Boston Center
Sat 11:35:58 AM 41.5847 -73.2422 232° Southwest 443 510 32,000  Level Boston Center
Sat 11:37:55 AM 41.4469 -73.4836 233° Southwest 435 501 32,000  Level New York Center
Sat 11:38:56 AM 41.3753 -73.6106 233° Southwest 435 501 32,000  Level New York Center
Sat 11:39:56 AM 41.3033 -73.7372 233° Southwest 430 495 32,000  Level New York Center
Sat 11:40:55 AM 41.2272 -73.8636 231° Southwest 435 501 32,000  Level New York Center
Sat 11:41:56 AM 41.1553 -73.9925 233° Southwest 435 501 32,000  Level New York Center
Sat 11:42:54 AM 41.0831 -74.1156 232° Southwest 435 501 32,000  Level New York Center
Sat 11:43:54 AM 41.0153 -74.2278 231° Southwest 435 501 32,000  Level New York Center
Sat 11:44:55 AM 40.9428 -74.3531 233° Southwest 435 501 32,000  Level New York Center
Sat 11:45:55 AM 40.8611 -74.4944 233° Southwest 435 501 32,000  Level New York Center
Sat 11:46:56 AM 40.7864 -74.6164 231° Southwest 435 501 32,000  Level New York Center
Sat 11:47:54 AM 40.7136 -74.7381 232° Southwest 435 501 32,000  Level New York Center
Sat 11:48:55 AM 40.6428 -74.8597 233° Southwest 430 495 32,000  Level New York Center
Sat 11:49:56 AM 40.5678 -74.9836 231° Southwest 430 495 32,000  Level New York Center
Sat 11:50:56 AM 40.4964 -75.1078 233° Southwest 430 495 32,000  Level New York Center
Sat 11:51:58 AM 40.4231 -75.2311 232° Southwest 430 495 32,000  Level New York Center
Sat 11:52:55 AM 40.3519 -75.3492 232° Southwest 430 495 32,000  Level New York Center
Sat 11:53:55 AM 40.2761 -75.4747 232° Southwest 435 501 32,000  Level New York Center
Sat 11:54:56 AM 40.2064 -75.5978 233° Southwest 435 501 32,000  Level New York Center
Sat 11:55:56 AM 40.1386 -75.7261 235° Southwest 435 501 32,000  Level New York Center
Sat 11:56:54 AM 40.0725 -75.8597 237° Southwest 435 501 32,000  Level New York Center
Sat 11:57:55 AM 40.0086 -75.9878 237° Southwest 435 501 32,000  Level New York Center
Sat 11:58:55 AM 39.9444 -76.1158 237° Southwest 435 501 32,000  Level New York Center
Sat 11:59:54 AM 39.8761 -76.2431 235° Southwest 429 494 32,000  Level New York Center
Sat 12:02:01 PM 39.7478 -76.4928 236° Southwest 422 486 32,000  Level Washington Center
Sat 12:03:01 PM 39.6781 -76.6186 234° Southwest 422 486 32,000  Level Washington Center
Sat 12:04:59 PM 39.5464 -76.8753 236° Southwest 427 491 32,000  Level Washington Center
Sat 12:06:00 PM 39.4783 -76.9978 234° Southwest 427 491 32,000  Level Washington Center
Sat 12:07:00 PM 39.4000 -77.1064 227° Southwest 427 491 32,000  Level Washington Center
Sat 12:08:00 PM 39.3194 -77.2147 226° Southwest 427 491 32,000  Level Washington Center
Sat 12:09:01 PM 39.2386 -77.3253 227° Southwest 427 491 32,000  Level Washington Center
Sat 12:10:02 PM 39.1578 -77.4333 226° Southwest 422 486 32,000  Level Washington Center
Sat 12:11:00 PM 39.0789 -77.5461 228° Southwest 422 486 32,000  Level Washington Center
Sat 12:12:00 PM 38.9872 -77.6639 225° Southwest 422 486 32,000  Level Washington Center
Sat 12:13:00 PM 38.9231 -77.7528 227° Southwest 422 486 32,000  Level Washington Center
Sat 12:14:01 PM 38.8247 -77.8886 227° Southwest 431 496 32,000  Level Washington Center
Sat 12:14:59 PM 38.7433 -77.9978 226° Southwest 431 496 32,000 356 Level Washington Center
Sat 12:15:59 PM 38.6642 -78.1017 226° Southwest 431 496 32,700 793 Climbing Washington Center
Sat 12:17:00 PM 38.5847 -78.2106 227° Southwest 426 490 33,600 694 Climbing Washington Center
Sat 12:18:00 PM 38.5072 -78.3164 227° Southwest 420 483 34,100 203 Climbing Washington Center
Sat 12:18:58 PM 38.4278 -78.4222 226° Southwest 415 478 34,000 -50 Descending Washington Center
Sat 12:19:59 PM 38.3481 -78.5250 225° Southwest 415 478 34,000  Level Washington Center
Sat 12:21:00 PM 38.2703 -78.6306 227° Southwest 415 478 34,000  Level Washington Center
Sat 12:22:01 PM 38.1925 -78.7356 227° Southwest 415 478 34,000  Level Washington Center
Sat 12:22:59 PM 38.1233 -78.8278 226° Southwest 415 478 34,000  Level Washington Center
Sat 12:23:59 PM 38.0411 -78.9350 226° Southwest 415 478 34,000  Level Washington Center
Sat 12:24:59 PM 37.9633 -79.0342 225° Southwest 415 478 34,000  Level Washington Center
Sat 12:26:00 PM 37.8811 -79.1383 225° Southwest 415 478 34,000  Level Washington Center
Sat 12:27:01 PM 37.7983 -79.2553 228° Southwest 415 478 34,000  Level Washington Center
Sat 12:28:01 PM 37.7197 -79.3644 228° Southwest 415 478 34,000  Level Washington Center
Sat 12:28:59 PM 37.6414 -79.4708 227° Southwest 415 478 34,000  Level Washington Center
Sat 12:30:00 PM 37.5714 -79.5667 227° Southwest 415 478 34,000  Level Washington Center
Sat 12:31:00 PM 37.4861 -79.6828 227° Southwest 415 478 34,000  Level Washington Center
Sat 12:31:58 PM 37.4072 -79.7936 228° Southwest 415 478 34,000  Level Washington Center
Sat 12:32:59 PM 37.3303 -79.8989 227° Southwest 421 484 34,000  Level Washington Center
Sat 12:34:00 PM 37.2536 -80.0017 227° Southwest 421 484 34,000  Level Washington Center
Sat 12:35:18 PM 37.1494 -80.1408 227° Southwest 416 479 34,000  Level Atlanta Center
Sat 12:36:18 PM 37.0733 -80.2408 226° Southwest 409 471 34,000  Level Atlanta Center
Sat 12:37:18 PM 37.0033 -80.3353 227° Southwest 409 471 34,000  Level Atlanta Center
Sat 12:38:18 PM 36.9253 -80.4400 227° Southwest 404 465 34,000  Level Atlanta Center
Sat 12:39:18 PM 36.8489 -80.5422 227° Southwest 409 471 34,000  Level Atlanta Center
Sat 12:40:18 PM 36.7725 -80.6439 227° Southwest 409 471 34,000  Level Atlanta Center
Sat 12:41:18 PM 36.7000 -80.7403 227° Southwest 401 461 34,000  Level Atlanta Center
Sat 12:42:18 PM 36.6236 -80.8417 227° Southwest 401 461 34,000  Level Atlanta Center
Sat 12:43:18 PM 36.5469 -80.9456 227° Southwest 406 467 34,000  Level Atlanta Center
Sat 12:44:18 PM 36.4622 -81.0572 227° Southwest 406 467 34,000  Level Atlanta Center
Sat 12:45:18 PM 36.3833 -81.1608 227° Southwest 406 467 34,000  Level Atlanta Center
Sat 12:46:18 PM 36.3042 -81.2639 226° Southwest 406 467 34,000  Level Atlanta Center
Sat 12:47:18 PM 36.2253 -81.3672 227° Southwest 412 474 34,000  Level Atlanta Center
Sat 12:48:18 PM 36.1481 -81.4675 226° Southwest 407 468 34,000  Level Atlanta Center
Sat 12:49:18 PM 36.0711 -81.5753 229° Southwest 407 468 34,000  Level Atlanta Center
Sat 12:50:18 PM 35.9897 -81.6778 226° Southwest 407 468 34,000  Level Atlanta Center
Sat 12:51:18 PM 35.9122 -81.7775 226° Southwest 407 468 34,000  Level Atlanta Center
Sat 12:52:18 PM 35.8328 -81.8819 227° Southwest 407 468 34,000  Level Atlanta Center
Sat 12:53:18 PM 35.7531 -81.9789 225° Southwest 407 468 34,000  Level Atlanta Center
Sat 12:54:18 PM 35.6733 -82.0806 226° Southwest 407 468 34,000  Level Atlanta Center
Sat 12:55:18 PM 35.5956 -82.1794 226° Southwest 407 468 34,000 -650 Level Atlanta Center
Sat 12:56:18 PM 35.5158 -82.2731 224° Southwest 407 468 32,700 -1,650 Descending Atlanta Center
Sat 12:57:18 PM 35.4294 -82.3692 222° Southwest 407 468 30,700 -1,450 Descending Atlanta Center
Sat 12:58:18 PM 35.3533 -82.4550 223° Southwest 417 480 29,800 -1,100 Descending Atlanta Center
Sat 12:59:18 PM 35.2628 -82.5533 222° Southwest 424 488 28,500 -1,600 Descending Atlanta Center
Sat 01:00:18 PM 35.1639 -82.6669 223° Southwest 438 504 26,600 -1,350 Descending Atlanta Center
Sat 01:01:18 PM 35.0711 -82.7622 220° Southwest 443 510 25,800 -1,000 Descending Atlanta Center
Sat 01:02:18 PM 34.9825 -82.8625 223° Southwest 443 510 24,600 -900 Descending Atlanta Center
Sat 01:03:18 PM 34.9017 -82.9472 221° Southwest 438 504 24,000 -300 Descending Atlanta Center
Sat 01:04:18 PM 34.8150 -83.0444 223° Southwest 427 491 24,000  Level Atlanta Center
Sat 01:05:18 PM 34.7281 -83.1417 223° Southwest 432 497 24,000  Level Atlanta Center
Sat 01:06:18 PM 34.6411 -83.2408 223° Southwest 437 503 24,000 -400 Level Atlanta Center
Sat 01:07:18 PM 34.5417 -83.3478 222° Southwest 437 503 23,200 -1,750 Descending Atlanta Center
Sat 01:08:18 PM 34.4564 -83.4392 221° Southwest 432 497 20,500 -2,700 Descending Atlanta Center
Sat 01:09:18 PM 34.3714 -83.5253 220° Southwest 421 484 17,800 -2,400 Descending Atlanta Center
Sat 01:10:18 PM 34.2692 -83.5661 198° South 375 432 15,700 -2,450 Descending Atlanta Center
Sat 01:11:18 PM 34.1775 -83.6244 208° Southwest 381 438 12,900 -1,850 Descending Atlanta Center
Sat 01:12:18 PM 34.1069 -83.7000 222° Southwest 371 427 12,000 -450 Descending Atlanta Center
Sat 01:13:18 PM 34.0506 -83.7781 229° Southwest 330 380 12,000  Level Atlanta Center
Sat 01:14:18 PM 34.0028 -83.8533 233° Southwest 301 346 12,000 -556 Level Atlanta Center
Sat 01:15:06 PM 33.9667 -83.9167 236° Southwest 283 326 11,000 -1,111 Descending Atlanta TRACON
Sat 01:16:06 PM 33.9000 -83.9500 203° Southwest 279 321 10,000 -950 Descending Atlanta TRACON
Sat 01:17:06 PM 33.8333 -83.9500 180° South 241 277 9,100 -900 Descending Atlanta TRACON
Sat 01:18:06 PM 33.7667 -83.9500 180° South 238 274 8,200 -1,050 Descending Atlanta TRACON
Sat 01:19:06 PM 33.7000 -83.9500 180° South 231 266 7,000 -600 Descending Atlanta TRACON
Sat 01:20:06 PM 33.6333 -83.9667 192° South 232 267 7,000 -45 Level Atlanta TRACON
Sat 01:21:18 PM 33.6294 -84.0561 267° West 191 220 6,900 -800 Descending Atlanta Center
Sat 01:23:06 PM 33.6333 -84.1833 272° West 223 257 4,600 -1,214 Descending Atlanta TRACON
Sat 01:24:06 PM 33.6333 -84.2667 270° West 212 244 3,500 -1,050 Descending Atlanta TRACON
Sat 01:25:06 PM 33.6333 -84.3167 270° West 176 203 2,500 -842 Descending Atlanta TRACON
Sat 01:26:00 PM 33.6333 -84.3667 270° West 134 154 1,900 -667 Descending Atlanta TRACON

Login

Don't have an account? Register now (free) for customized features, flight alerts, and more!